createdAt,value
2023-05-08T00:00:08.226Z,25.50
2023-05-08T00:02:56.924Z,25.50
2023-05-08T00:05:27.427Z,25.50
2023-05-08T00:08:01.369Z,25.50
2023-05-08T00:10:30.957Z,25.40
2023-05-08T00:12:59.713Z,25.40
2023-05-08T00:15:28.666Z,25.40
2023-05-08T00:17:57.334Z,25.40
2023-05-08T00:20:27.999Z,25.40
2023-05-08T00:22:57.929Z,25.40
2023-05-08T00:25:28.235Z,25.30
2023-05-08T00:27:57.440Z,25.30
2023-05-08T00:30:26.808Z,25.30
2023-05-08T00:32:55.700Z,25.30
2023-05-08T00:35:24.855Z,25.30
2023-05-08T00:37:54.863Z,25.30
2023-05-08T00:40:23.971Z,25.30
2023-05-08T00:42:52.674Z,25.20
2023-05-08T00:45:22.030Z,25.20
2023-05-08T00:47:52.702Z,25.20
2023-05-08T00:50:21.896Z,25.20
2023-05-08T00:52:51.617Z,25.20
2023-05-08T00:55:23.162Z,25.20
2023-05-08T00:57:53.404Z,25.20
2023-05-08T01:00:23.371Z,25.20
2023-05-08T01:02:52.803Z,25.20
2023-05-08T01:05:21.857Z,25.10
2023-05-08T01:07:50.917Z,25.10
2023-05-08T01:10:21.315Z,25.10
2023-05-08T01:13:06.489Z,25.10
2023-05-08T01:15:48.689Z,25.10
2023-05-08T01:18:29.169Z,25.10
2023-05-08T01:21:08.343Z,25.10
2023-05-08T01:24:29.168Z,25.00
2023-05-08T01:27:41.826Z,25.00
2023-05-08T01:30:50.690Z,25.00
2023-05-08T01:33:28.279Z,25.00
2023-05-08T01:36:12.694Z,25.00
2023-05-08T01:38:53.077Z,25.00
2023-05-08T01:41:29.295Z,25.00
2023-05-08T01:44:13.905Z,25.00
2023-05-08T01:46:49.168Z,25.00
2023-05-08T01:49:27.500Z,24.90
2023-05-08T01:52:05.622Z,24.90
2023-05-08T01:54:43.927Z,24.90
2023-05-08T01:57:15.618Z,24.90
2023-05-08T01:59:47.670Z,24.90
2023-05-08T02:02:19.055Z,24.90
2023-05-08T02:04:53.300Z,24.90
2023-05-08T02:07:25.112Z,24.90
2023-05-08T02:09:59.074Z,24.90
2023-05-08T02:12:29.981Z,24.90
2023-05-08T02:15:01.421Z,24.90
2023-05-08T02:17:51.739Z,24.90
2023-05-08T02:20:23.688Z,24.90
2023-05-08T02:22:53.106Z,24.90
2023-05-08T02:25:23.360Z,24.90
2023-05-08T02:27:56.590Z,24.80
2023-05-08T02:30:27.576Z,24.80
2023-05-08T02:33:00.837Z,24.80
2023-05-08T02:35:33.230Z,24.80
2023-05-08T02:38:04.009Z,24.80
2023-05-08T02:40:34.264Z,24.80
2023-05-08T02:43:03.050Z,24.80
2023-05-08T02:45:44.681Z,24.80
2023-05-08T02:48:23.921Z,24.80
2023-05-08T02:51:04.150Z,24.70
2023-05-08T02:53:38.917Z,24.70
2023-05-08T02:56:18.810Z,24.70
2023-05-08T02:58:59.932Z,24.70
2023-05-08T03:01:37.386Z,24.70
2023-05-08T03:04:12.306Z,24.70
2023-05-08T03:06:48.023Z,24.70
2023-05-08T03:09:21.621Z,24.60
2023-05-08T03:12:00.462Z,24.60
2023-05-08T03:14:33.410Z,24.60
2023-05-08T03:17:08.786Z,24.60
2023-05-08T03:19:40.366Z,24.60
2023-05-08T03:22:12.583Z,24.60
2023-05-08T03:24:45.248Z,24.60
2023-05-08T03:27:17.158Z,24.60
2023-05-08T03:29:47.844Z,24.60
2023-05-08T03:32:19.382Z,24.60
2023-05-08T03:34:50.396Z,24.60
2023-05-08T03:37:21.258Z,24.60
2023-05-08T03:39:50.157Z,24.60
2023-05-08T03:42:22.136Z,24.60
2023-05-08T03:44:53.522Z,24.60
2023-05-08T03:47:24.271Z,24.70
2023-05-08T03:49:54.178Z,24.70
2023-05-08T03:52:25.747Z,24.70
2023-05-08T03:54:54.731Z,24.70
2023-05-08T03:57:32.554Z,24.70
2023-05-08T04:00:10.083Z,24.70
2023-05-08T04:03:09.182Z,24.80
2023-05-08T04:05:48.961Z,24.80
2023-05-08T04:08:27.103Z,24.90
2023-05-08T04:11:07.597Z,24.90
2023-05-08T04:13:46.986Z,24.90
2023-05-08T04:16:25.051Z,25.00
2023-05-08T04:19:03.401Z,25.00
2023-05-08T04:21:37.426Z,25.10
2023-05-08T04:24:13.583Z,25.10
2023-05-08T04:26:44.202Z,25.20
2023-05-08T04:29:14.325Z,25.30
2023-05-08T04:31:44.468Z,25.40
2023-05-08T04:34:14.905Z,25.40
2023-05-08T04:36:44.134Z,25.50
2023-05-08T04:39:14.554Z,25.60
2023-05-08T04:41:44.117Z,25.70
2023-05-08T04:44:14.539Z,25.80
2023-05-08T04:46:43.491Z,25.80
2023-05-08T04:49:12.646Z,25.90
2023-05-08T04:51:41.268Z,26.00
2023-05-08T04:54:10.419Z,26.00
2023-05-08T04:56:40.486Z,26.10
2023-05-08T04:59:09.418Z,26.20
2023-05-08T05:01:38.169Z,26.30
2023-05-08T05:04:07.395Z,26.40
2023-05-08T05:06:36.103Z,26.50
2023-05-08T05:09:05.442Z,26.50
2023-05-08T05:11:34.534Z,26.60
2023-05-08T05:14:04.925Z,26.70
2023-05-08T05:16:33.756Z,26.80
2023-05-08T05:19:02.755Z,26.80
2023-05-08T05:21:31.723Z,26.90
2023-05-08T05:24:00.813Z,27.00
2023-05-08T05:26:29.542Z,27.10
2023-05-08T05:28:58.644Z,27.20
2023-05-08T05:31:29.939Z,27.20
2023-05-08T05:33:59.639Z,27.30
2023-05-08T05:36:29.394Z,27.30
2023-05-08T05:38:58.780Z,27.40
2023-05-08T05:41:27.786Z,27.50
2023-05-08T05:43:56.833Z,27.60
2023-05-08T05:46:32.303Z,27.80
2023-05-08T05:49:04.975Z,28.00
2023-05-08T05:51:35.463Z,28.30
2023-05-08T05:54:04.924Z,28.50
2023-05-08T05:56:33.559Z,28.60
2023-05-08T05:59:02.756Z,28.80
2023-05-08T06:01:31.799Z,28.90
2023-05-08T06:04:00.935Z,29.00
2023-05-08T06:06:32.045Z,29.10
2023-05-08T06:09:01.532Z,29.20
2023-05-08T06:11:30.273Z,29.30
2023-05-08T06:13:59.267Z,29.50
2023-05-08T06:16:28.101Z,29.60
2023-05-08T06:18:57.186Z,29.70
2023-05-08T06:21:28.723Z,29.80
2023-05-08T06:23:58.980Z,29.80
2023-05-08T06:26:27.706Z,29.90
2023-05-08T06:28:56.825Z,29.90
2023-05-08T06:31:25.619Z,30.00
2023-05-08T06:33:54.672Z,30.00
2023-05-08T06:36:23.378Z,30.00
2023-05-08T06:38:53.484Z,30.00
2023-05-08T06:41:23.482Z,30.00
2023-05-08T06:43:52.357Z,30.00
2023-05-08T06:46:21.774Z,30.10
2023-05-08T06:48:50.926Z,30.10
2023-05-08T06:51:23.195Z,30.20
2023-05-08T06:53:52.166Z,30.10
2023-05-08T06:56:21.216Z,30.10
2023-05-08T06:59:04.577Z,30.20
2023-05-08T07:01:37.536Z,30.20
2023-05-08T07:04:06.991Z,30.30
2023-05-08T07:06:35.694Z,30.20
2023-05-08T07:09:04.784Z,30.20
2023-05-08T07:11:33.648Z,30.20
2023-05-08T07:14:04.064Z,30.30
2023-05-08T07:16:32.915Z,30.30
2023-05-08T07:19:02.015Z,30.20
2023-05-08T07:21:30.776Z,30.30
2023-05-08T07:23:59.789Z,30.30
2023-05-08T07:26:28.517Z,30.30
2023-05-08T07:28:57.573Z,30.30
2023-05-08T07:31:27.626Z,30.40
2023-05-08T07:33:56.715Z,30.40
2023-05-08T07:36:25.331Z,30.50
2023-05-08T07:38:54.281Z,30.60
2023-05-08T07:41:23.164Z,30.60
2023-05-08T07:43:52.158Z,30.60
2023-05-08T07:46:21.764Z,30.60
2023-05-08T07:48:52.073Z,30.60
2023-05-08T07:51:20.883Z,30.50
2023-05-08T07:53:51.191Z,30.60
2023-05-08T07:56:19.908Z,30.50
2023-05-08T07:58:48.877Z,30.60
2023-05-08T08:01:18.458Z,30.70
2023-05-08T08:03:47.897Z,30.50
2023-05-08T08:06:18.600Z,30.60
2023-05-08T08:08:47.597Z,30.50
2023-05-08T08:11:16.363Z,30.60
2023-05-08T08:13:45.336Z,30.60
2023-05-08T08:16:14.040Z,30.70
2023-05-08T08:18:42.997Z,30.80
2023-05-08T08:21:11.721Z,30.90
2023-05-08T08:23:42.080Z,30.90
2023-05-08T08:26:10.814Z,31.00
2023-05-08T08:28:39.724Z,31.00
2023-05-08T08:31:08.567Z,31.10
2023-05-08T08:33:37.616Z,31.10
2023-05-08T08:36:13.644Z,31.20
2023-05-08T08:38:44.047Z,31.20
2023-05-08T08:41:15.750Z,31.30
2023-05-08T08:43:44.776Z,31.40
2023-05-08T08:46:15.986Z,31.50
2023-05-08T08:48:47.958Z,31.60
2023-05-08T08:51:28.442Z,31.60
2023-05-08T08:54:12.505Z,31.70
2023-05-08T08:56:43.050Z,31.40
2023-05-08T08:59:14.521Z,31.60
2023-05-08T09:01:48.736Z,31.40
2023-05-08T09:04:18.365Z,31.50
2023-05-08T09:06:48.078Z,31.60
2023-05-08T09:09:18.404Z,31.70
2023-05-08T09:11:48.425Z,31.80
2023-05-08T09:14:17.393Z,31.90
2023-05-08T09:16:46.536Z,32.00
2023-05-08T09:19:16.517Z,32.00
2023-05-08T09:21:46.336Z,31.90
2023-05-08T09:24:15.790Z,31.80
2023-05-08T09:26:45.824Z,32.00
2023-05-08T09:29:17.268Z,32.00
2023-05-08T09:31:49.067Z,32.00
2023-05-08T09:34:27.980Z,32.10
2023-05-08T09:36:57.525Z,32.10
2023-05-08T09:39:27.653Z,32.20
2023-05-08T09:42:02.861Z,32.20
2023-05-08T09:44:46.523Z,32.20
2023-05-08T09:47:16.901Z,32.10
2023-05-08T09:49:59.303Z,32.10
2023-05-08T09:52:28.956Z,32.10
2023-05-08T09:55:02.855Z,32.20
2023-05-08T09:57:36.461Z,32.30
2023-05-08T10:00:10.324Z,32.40
2023-05-08T10:02:42.512Z,32.50
2023-05-08T10:05:26.297Z,32.50
2023-05-08T10:07:55.241Z,32.50
2023-05-08T10:10:27.483Z,32.60
2023-05-08T10:12:59.710Z,32.60
2023-05-08T10:15:32.180Z,32.60
2023-05-08T10:18:06.600Z,32.60
2023-05-08T10:20:39.921Z,32.60
2023-05-08T10:23:15.658Z,32.60
2023-05-08T10:25:48.416Z,32.60
2023-05-08T10:28:32.442Z,32.70
2023-05-08T10:31:05.506Z,32.80
2023-05-08T10:33:36.561Z,32.80
2023-05-08T10:36:07.664Z,32.80
2023-05-08T10:38:38.318Z,32.80
2023-05-08T10:41:07.806Z,32.80
2023-05-08T10:43:43.516Z,32.70
2023-05-08T10:46:23.877Z,32.70
2023-05-08T10:49:06.596Z,32.70
2023-05-08T10:51:46.336Z,32.70
2023-05-08T10:54:24.693Z,32.80
2023-05-08T10:56:53.700Z,33.00
2023-05-08T10:59:23.908Z,33.00
2023-05-08T11:01:53.504Z,33.10
2023-05-08T11:04:24.251Z,33.00
2023-05-08T11:06:54.012Z,33.00
2023-05-08T11:09:24.663Z,33.10
2023-05-08T11:12:08.339Z,33.00
2023-05-08T11:14:43.709Z,33.00
2023-05-08T11:17:12.825Z,33.10
2023-05-08T11:19:58.177Z,33.20
2023-05-08T11:22:30.200Z,33.40
2023-05-08T11:25:08.775Z,33.50
2023-05-08T11:28:20.208Z,33.60
2023-05-08T11:30:56.424Z,33.50
2023-05-08T11:33:32.080Z,33.60
2023-05-08T11:36:12.673Z,33.80
2023-05-08T11:38:44.013Z,33.90
2023-05-08T11:41:22.801Z,34.10
2023-05-08T11:44:20.543Z,34.30
2023-05-08T11:46:54.050Z,34.20
2023-05-08T11:49:29.018Z,34.20
2023-05-08T11:52:00.759Z,34.30
2023-05-08T11:54:32.746Z,34.30
2023-05-08T11:57:01.883Z,34.30
2023-05-08T11:59:36.665Z,34.40
2023-05-08T12:02:09.188Z,34.50
2023-05-08T12:04:46.902Z,34.30
2023-05-08T12:07:16.485Z,33.90
2023-05-08T12:09:47.581Z,34.00
2023-05-08T12:12:16.409Z,33.80
2023-05-08T12:14:45.395Z,33.80
2023-05-08T12:17:19.324Z,33.60
2023-05-08T12:19:48.328Z,33.40
2023-05-08T12:22:17.003Z,33.40
2023-05-08T12:24:46.103Z,33.40
2023-05-08T12:27:14.902Z,33.40
2023-05-08T12:29:46.707Z,33.30
2023-05-08T12:32:17.037Z,33.40
2023-05-08T12:34:46.378Z,33.40
2023-05-08T12:37:25.847Z,33.40
2023-05-08T12:39:55.223Z,33.40
2023-05-08T12:42:23.979Z,33.20
2023-05-08T12:44:54.329Z,33.20
2023-05-08T12:47:26.801Z,33.00
2023-05-08T12:49:59.494Z,32.80
2023-05-08T12:52:29.923Z,32.80
2023-05-08T12:54:58.977Z,32.90
2023-05-08T12:57:27.748Z,32.90
2023-05-08T13:00:06.038Z,32.90
2023-05-08T13:02:41.680Z,32.90
2023-05-08T13:05:21.818Z,32.30
2023-05-08T13:07:51.531Z,32.30
2023-05-08T13:10:23.489Z,32.40
2023-05-08T13:12:53.318Z,32.50
2023-05-08T13:15:23.953Z,32.60
2023-05-08T13:17:54.153Z,32.60
2023-05-08T13:20:23.648Z,32.70
2023-05-08T13:22:52.436Z,32.70
2023-05-08T13:25:21.363Z,32.80
2023-05-08T13:27:50.051Z,32.80
2023-05-08T13:30:19.086Z,32.90
2023-05-08T13:32:47.781Z,32.90
2023-05-08T13:35:18.929Z,32.80
2023-05-08T13:37:48.360Z,32.90
2023-05-08T13:40:18.974Z,32.90
2023-05-08T13:42:47.881Z,33.00
2023-05-08T13:45:18.589Z,33.00
2023-05-08T13:47:48.714Z,32.90
2023-05-08T13:50:21.822Z,33.00
2023-05-08T13:52:53.218Z,33.00
2023-05-08T13:55:24.342Z,32.90
2023-05-08T13:57:53.115Z,32.80
2023-05-08T14:00:22.321Z,32.70
2023-05-08T14:02:53.174Z,32.80
2023-05-08T14:05:23.797Z,32.60
2023-05-08T14:07:52.549Z,32.60
2023-05-08T14:10:21.774Z,32.60
2023-05-08T14:12:50.546Z,32.60
2023-05-08T14:15:19.755Z,32.70
2023-05-08T14:17:48.677Z,32.80
2023-05-08T14:20:17.759Z,32.80
2023-05-08T14:22:47.772Z,32.90
2023-05-08T14:25:16.926Z,32.90
2023-05-08T14:27:45.628Z,32.90
2023-05-08T14:30:16.010Z,32.70
2023-05-08T14:32:44.707Z,32.80
2023-05-08T14:35:14.439Z,32.90
2023-05-08T14:37:43.385Z,33.00
2023-05-08T14:40:14.193Z,33.10
2023-05-08T14:42:42.928Z,33.10
2023-05-08T14:45:12.926Z,33.20
2023-05-08T14:47:41.917Z,33.20
2023-05-08T14:50:12.229Z,33.20
2023-05-08T14:52:40.958Z,33.30
2023-05-08T14:55:11.429Z,33.30
2023-05-08T14:57:41.745Z,33.30
2023-05-08T15:00:12.886Z,33.20
2023-05-08T15:02:42.103Z,33.30
2023-05-08T15:05:19.204Z,33.20
2023-05-08T15:07:50.068Z,33.20
2023-05-08T15:10:19.156Z,33.20
2023-05-08T15:12:49.261Z,33.00
2023-05-08T15:15:18.296Z,32.90
2023-05-08T15:17:47.012Z,32.90
2023-05-08T15:20:15.991Z,33.00
2023-05-08T15:22:44.726Z,33.00
2023-05-08T15:25:14.418Z,33.00
2023-05-08T15:27:43.375Z,33.10
2023-05-08T15:30:15.539Z,33.00
2023-05-08T15:32:44.331Z,33.00
2023-05-08T15:35:13.749Z,33.00
2023-05-08T15:37:42.562Z,33.00
2023-05-08T15:40:13.183Z,33.00
2023-05-08T15:42:41.859Z,33.00
2023-05-08T15:45:13.051Z,33.00
2023-05-08T15:47:41.863Z,32.90
2023-05-08T15:50:11.967Z,33.00
2023-05-08T15:52:40.578Z,33.00
2023-05-08T15:55:11.190Z,33.20
2023-05-08T15:57:40.137Z,33.30
2023-05-08T16:00:10.939Z,33.50
2023-05-08T16:02:41.049Z,33.60
2023-05-08T16:05:11.210Z,33.60
2023-05-08T16:07:40.313Z,33.70
2023-05-08T16:10:11.048Z,33.70
2023-05-08T16:12:39.719Z,33.70
2023-05-08T16:15:09.578Z,33.60
2023-05-08T16:17:38.278Z,33.50
2023-05-08T16:20:12.486Z,33.40
2023-05-08T16:22:41.800Z,33.40
2023-05-08T16:25:11.857Z,33.30
2023-05-08T16:27:40.810Z,33.30
2023-05-08T16:30:11.924Z,33.20
2023-05-08T16:32:40.920Z,33.20
2023-05-08T16:35:12.185Z,33.10
2023-05-08T16:37:41.059Z,33.10
2023-05-08T16:40:11.802Z,33.10
2023-05-08T16:42:40.453Z,33.00
2023-05-08T16:45:11.406Z,33.00
2023-05-08T16:47:40.250Z,33.00
2023-05-08T16:50:12.362Z,33.00
2023-05-08T16:52:41.177Z,33.00
2023-05-08T16:55:11.546Z,33.00
2023-05-08T16:57:40.466Z,33.00
2023-05-08T17:00:10.760Z,33.00
2023-05-08T17:02:39.525Z,32.90
2023-05-08T17:05:10.762Z,32.80
2023-05-08T17:07:39.819Z,32.80
2023-05-08T17:10:10.604Z,32.80
2023-05-08T17:12:39.386Z,32.80
2023-05-08T17:15:09.765Z,32.70
2023-05-08T17:17:38.734Z,32.60
2023-05-08T17:20:11.614Z,32.60
2023-05-08T17:22:41.326Z,32.60
2023-05-08T17:25:11.595Z,32.60
2023-05-08T17:27:40.433Z,32.50
2023-05-08T17:30:12.500Z,32.50
2023-05-08T17:32:41.537Z,32.40
2023-05-08T17:35:12.203Z,32.40
2023-05-08T17:37:40.906Z,32.40
2023-05-08T17:40:11.870Z,32.30
2023-05-08T17:42:40.743Z,32.30
2023-05-08T17:45:10.407Z,32.30
2023-05-08T17:47:40.261Z,32.30
2023-05-08T17:50:11.995Z,32.20
2023-05-08T17:52:41.204Z,32.20
2023-05-08T17:55:11.582Z,32.10
2023-05-08T17:57:40.409Z,32.10
2023-05-08T18:00:11.260Z,32.10
2023-05-08T18:02:41.479Z,32.10
2023-05-08T18:05:12.050Z,31.90
2023-05-08T18:07:40.976Z,31.90
2023-05-08T18:10:10.947Z,31.80
2023-05-08T18:12:39.734Z,31.70
2023-05-08T18:15:09.911Z,31.60
2023-05-08T18:17:38.677Z,31.50
2023-05-08T18:20:09.973Z,31.40
2023-05-08T18:22:40.187Z,31.30
2023-05-08T18:25:12.607Z,31.20
2023-05-08T18:27:42.918Z,31.10
2023-05-08T18:30:14.151Z,31.00
2023-05-08T18:32:44.145Z,30.90
2023-05-08T18:35:13.663Z,30.80
2023-05-08T18:37:43.909Z,30.70
2023-05-08T18:40:14.375Z,30.70
2023-05-08T18:42:43.326Z,30.60
2023-05-08T18:45:13.148Z,30.50
2023-05-08T18:47:41.808Z,30.40
2023-05-08T18:50:12.174Z,30.40
2023-05-08T18:52:41.140Z,30.30
2023-05-08T18:55:11.817Z,30.30
2023-05-08T18:57:40.406Z,30.10
2023-05-08T19:00:10.952Z,30.10
2023-05-08T19:02:39.879Z,30.00
2023-05-08T19:05:09.663Z,30.00
2023-05-08T19:07:38.390Z,29.90
2023-05-08T19:10:09.528Z,29.80
2023-05-08T19:12:39.696Z,29.80
2023-05-08T19:15:13.313Z,29.70
2023-05-08T19:17:42.740Z,29.70
2023-05-08T19:20:14.590Z,29.70
2023-05-08T19:22:43.680Z,29.60
2023-05-08T19:25:13.635Z,29.60
2023-05-08T19:27:43.661Z,29.50
2023-05-08T19:30:13.925Z,29.50
2023-05-08T19:32:43.170Z,29.40
2023-05-08T19:35:12.203Z,29.30
2023-05-08T19:37:40.928Z,29.30
2023-05-08T19:40:11.741Z,29.30
2023-05-08T19:42:40.590Z,29.30
2023-05-08T19:45:12.655Z,29.20
2023-05-08T19:47:41.412Z,29.20
2023-05-08T19:50:12.507Z,29.10
2023-05-08T19:52:41.407Z,29.10
2023-05-08T19:55:10.833Z,29.10
2023-05-08T19:57:39.652Z,29.00
2023-05-08T20:00:12.198Z,28.90
2023-05-08T20:02:41.315Z,28.90
2023-05-08T20:05:21.812Z,28.80
2023-05-08T20:07:51.839Z,28.80
2023-05-08T20:10:20.963Z,28.80
2023-05-08T20:12:49.692Z,28.70
2023-05-08T20:15:20.580Z,28.70
2023-05-08T20:17:49.291Z,28.70
2023-05-08T20:20:18.354Z,28.60
2023-05-08T20:22:47.014Z,28.60
2023-05-08T20:25:16.244Z,28.50
2023-05-08T20:27:44.938Z,28.50
2023-05-08T20:30:14.751Z,28.50
2023-05-08T20:32:45.001Z,28.40
2023-05-08T20:35:14.905Z,28.40
2023-05-08T20:37:48.247Z,28.40
2023-05-08T20:40:17.460Z,28.40
2023-05-08T20:42:46.297Z,28.40
2023-05-08T20:45:15.247Z,28.40
2023-05-08T20:47:45.303Z,28.30
2023-05-08T20:50:16.119Z,28.20
2023-05-08T20:52:45.931Z,28.20
2023-05-08T20:55:15.198Z,28.20
2023-05-08T20:57:44.195Z,28.20
2023-05-08T21:00:14.444Z,28.10
2023-05-08T21:02:44.745Z,28.10
2023-05-08T21:05:14.142Z,28.10
2023-05-08T21:07:43.044Z,28.10
2023-05-08T21:10:13.002Z,28.00
2023-05-08T21:12:44.515Z,28.00
2023-05-08T21:15:13.829Z,28.00
2023-05-08T21:17:44.234Z,27.90
2023-05-08T21:20:14.441Z,27.90
2023-05-08T21:22:43.443Z,27.90
2023-05-08T21:25:19.176Z,27.90
2023-05-08T21:27:47.856Z,27.80
2023-05-08T21:30:16.907Z,27.80
2023-05-08T21:32:47.733Z,27.80
2023-05-08T21:35:17.413Z,27.70
2023-05-08T21:37:46.312Z,27.70
2023-05-08T21:40:15.372Z,27.70
2023-05-08T21:42:44.029Z,27.70
2023-05-08T21:45:13.469Z,27.70
2023-05-08T21:47:42.365Z,27.60
2023-05-08T21:50:13.138Z,27.60
2023-05-08T21:52:42.096Z,27.60
2023-05-08T21:55:11.690Z,27.60
2023-05-08T21:57:40.493Z,27.50
2023-05-08T22:00:10.993Z,27.50
2023-05-08T22:02:48.398Z,27.50
2023-05-08T22:05:18.960Z,27.50
2023-05-08T22:07:47.686Z,27.50
2023-05-08T22:10:16.590Z,27.40
2023-05-08T22:12:45.278Z,27.40
2023-05-08T22:15:28.581Z,27.40
2023-05-08T22:17:58.861Z,27.30
2023-05-08T22:20:29.618Z,27.30
2023-05-08T22:22:58.193Z,27.30
2023-05-08T22:25:27.393Z,27.20
2023-05-08T22:27:56.049Z,27.20
2023-05-08T22:30:25.007Z,27.20
2023-05-08T22:32:57.548Z,27.20
2023-05-08T22:35:29.016Z,27.20
2023-05-08T22:37:58.390Z,27.20
2023-05-08T22:40:28.341Z,27.10
2023-05-08T22:42:58.879Z,27.10
2023-05-08T22:45:28.919Z,27.10
2023-05-08T22:47:57.979Z,27.00
2023-05-08T22:50:28.396Z,27.00
2023-05-08T22:52:57.100Z,27.00
2023-05-08T22:55:26.018Z,27.00
2023-05-08T22:57:54.685Z,27.00
2023-05-08T23:00:23.879Z,27.00
2023-05-08T23:02:52.616Z,27.00
2023-05-08T23:05:21.801Z,27.00
2023-05-08T23:07:52.034Z,27.00
2023-05-08T23:10:20.922Z,26.90
2023-05-08T23:12:49.535Z,26.90
2023-05-08T23:15:21.090Z,26.90
2023-05-08T23:17:50.333Z,26.90
2023-05-08T23:20:19.747Z,26.90
2023-05-08T23:22:48.426Z,26.80
2023-05-08T23:25:18.788Z,26.90
2023-05-08T23:27:47.431Z,26.80
2023-05-08T23:30:17.023Z,26.80
2023-05-08T23:32:45.933Z,26.80
2023-05-08T23:35:15.201Z,26.70
2023-05-08T23:37:43.969Z,26.70
2023-05-08T23:40:14.012Z,26.70
2023-05-08T23:42:44.373Z,26.70
2023-05-08T23:45:13.661Z,26.70
2023-05-08T23:47:42.492Z,26.70
2023-05-08T23:50:13.138Z,26.70
2023-05-08T23:52:42.709Z,26.70
2023-05-08T23:55:12.328Z,26.60
2023-05-08T23:57:41.252Z,26.60
